Terminal Aerodrome Forecast
Issued by NWS Wilmington, NC

Home | Current Version | Previous Version | Text Only | Print | Product List | Glossary On
Versions: 1 2 3 4 5 6 7 8 9 10 11 12 13 14 15 16 17 18 19 20 21 22 23 24 25
000
FTUS42 KILM 271100
TAFFLO
TAF
KFLO 271133Z 2712/2812 21006KT P6SM BKN080 WS020/25035KT
     FM271400 27015G25KT P6SM SCT040 BKN100
     FM272000 32016G26KT P6SM SCT040
     FM272300 34007KT P6SM SKC=

USA.gov is the U.S. government's official web portal to all federal, state and local government web resources and services.